sensor_id;sensor_type;location;lat;lon;timestamp;pressure;altitude;pressure_sealevel;temperature;humidity
67397;BME280;57728;50.448;18.824;2023-05-10T00:00:53;98007.69;;;10.35;46.85
67397;BME280;57728;50.448;18.824;2023-05-10T00:02:55;98069.41;;;10.71;46.66
67397;BME280;57728;50.448;18.824;2023-05-10T00:04:57;97969.34;;;10.06;46.80
67397;BME280;57728;50.448;18.824;2023-05-10T00:06:58;97912.78;;;9.77;46.78
67397;BME280;57728;50.448;18.824;2023-05-10T00:09:00;98038.44;;;10.54;46.85
67397;BME280;57728;50.448;18.824;2023-05-10T00:11:01;98036.53;;;10.54;46.99
67397;BME280;57728;50.448;18.824;2023-05-10T00:13:03;97986.56;;;10.18;46.91
67397;BME280;57728;50.448;18.824;2023-05-10T00:15:06;98069.03;;;10.68;46.94
67397;BME280;57728;50.448;18.824;2023-05-10T00:17:07;98052.16;;;10.59;47.01
67397;BME280;57728;50.448;18.824;2023-05-10T00:19:09;98001.25;;;10.29;47.20
67397;BME280;57728;50.448;18.824;2023-05-10T00:21:11;98035.34;;;10.50;47.01
67397;BME280;57728;50.448;18.824;2023-05-10T00:23:12;98058.00;;;10.62;47.16
67397;BME280;57728;50.448;18.824;2023-05-10T00:25:13;97897.56;;;9.58;47.03
67397;BME280;57728;50.448;18.824;2023-05-10T00:27:15;97996.34;;;10.19;47.29
67397;BME280;57728;50.448;18.824;2023-05-10T00:29:16;98013.81;;;10.30;47.22
67397;BME280;57728;50.448;18.824;2023-05-10T00:31:18;98036.72;;;10.41;47.49
67397;BME280;57728;50.448;18.824;2023-05-10T00:33:20;98010.56;;;10.21;47.30
67397;BME280;57728;50.448;18.824;2023-05-10T00:35:22;97978.84;;;9.96;47.42
67397;BME280;57728;50.448;18.824;2023-05-10T00:37:23;98027.66;;;10.28;47.45
67397;BME280;57728;50.448;18.824;2023-05-10T00:39:25;98023.13;;;10.22;47.70
67397;BME280;57728;50.448;18.824;2023-05-10T00:41:30;98019.03;;;10.13;47.49
67397;BME280;57728;50.448;18.824;2023-05-10T00:43:35;98043.97;;;10.28;47.64
67397;BME280;57728;50.448;18.824;2023-05-10T00:45:40;98042.75;;;10.24;47.80
67397;BME280;57728;50.448;18.824;2023-05-10T00:47:42;97889.94;;;9.29;47.93
67397;BME280;57728;50.448;18.824;2023-05-10T00:49:44;98000.72;;;9.90;48.05
67397;BME280;57728;50.448;18.824;2023-05-10T00:51:48;97971.94;;;9.63;48.14
67397;BME280;57728;50.448;18.824;2023-05-10T00:53:51;97985.34;;;9.77;48.19
67397;BME280;57728;50.448;18.824;2023-05-10T00:55:52;98033.56;;;10.07;48.33
67397;BME280;57728;50.448;18.824;2023-05-10T00:57:55;98033.81;;;10.05;48.30
67397;BME280;57728;50.448;18.824;2023-05-10T00:59:59;97916.88;;;9.31;48.27
67397;BME280;57728;50.448;18.824;2023-05-10T01:02:05;98047.00;;;10.02;48.19
67397;BME280;57728;50.448;18.824;2023-05-10T01:04:08;98009.09;;;9.88;48.58
67397;BME280;57728;50.448;18.824;2023-05-10T01:06:13;97953.88;;;9.51;48.47
67397;BME280;57728;50.448;18.824;2023-05-10T01:08:14;97979.25;;;9.63;48.63
67397;BME280;57728;50.448;18.824;2023-05-10T01:10:17;98024.34;;;9.89;48.62
67397;BME280;57728;50.448;18.824;2023-05-10T01:12:25;97946.72;;;9.38;48.75
67397;BME280;57728;50.448;18.824;2023-05-10T01:14:27;97983.25;;;9.60;48.76
67397;BME280;57728;50.448;18.824;2023-05-10T01:16:33;98029.19;;;9.87;48.86
67397;BME280;57728;50.448;18.824;2023-05-10T01:18:41;97946.72;;;9.38;48.86
67397;BME280;57728;50.448;18.824;2023-05-10T01:20:52;98019.81;;;9.83;48.93
67397;BME280;57728;50.448;18.824;2023-05-10T01:34:00;97999.41;;;9.55;49.44
67397;BME280;57728;50.448;18.824;2023-05-10T01:36:19;98021.16;;;9.74;49.36
67397;BME280;57728;50.448;18.824;2023-05-10T01:38:49;98001.06;;;9.56;49.47
67397;BME280;57728;50.448;18.824;2023-05-10T01:41:25;98017.00;;;9.71;49.46
67397;BME280;57728;50.448;18.824;2023-05-10T01:43:46;97984.28;;;9.41;49.54
67397;BME280;57728;50.448;18.824;2023-05-10T01:46:14;97846.41;;;8.55;49.57
67397;BME280;57728;50.448;18.824;2023-05-10T01:48:22;97880.66;;;8.75;49.49
67397;BME280;57728;50.448;18.824;2023-05-10T01:50:30;97986.56;;;9.44;49.78
67397;BME280;57728;50.448;18.824;2023-05-10T01:52:40;97995.00;;;9.54;49.74
67397;BME280;57728;50.448;18.824;2023-05-10T01:54:53;97999.94;;;9.64;49.73
67397;BME280;57728;50.448;18.824;2023-05-10T01:57:03;97982.97;;;9.50;49.59
67397;BME280;57728;50.448;18.824;2023-05-10T01:59:13;97988.53;;;9.55;49.91
67397;BME280;57728;50.448;18.824;2023-05-10T02:01:20;98007.03;;;9.65;50.01
67397;BME280;57728;50.448;18.824;2023-05-10T02:03:24;97982.34;;;9.48;49.92
67397;BME280;57728;50.448;18.824;2023-05-10T02:05:32;97991.25;;;9.55;49.87
67397;BME280;57728;50.448;18.824;2023-05-10T02:07:36;97978.56;;;9.49;49.89
67397;BME280;57728;50.448;18.824;2023-05-10T02:09:38;97968.44;;;9.38;49.86
67397;BME280;57728;50.448;18.824;2023-05-10T02:11:43;97928.31;;;9.15;50.02
67397;BME280;57728;50.448;18.824;2023-05-10T02:13:47;97971.31;;;9.43;50.03
67397;BME280;57728;50.448;18.824;2023-05-10T02:15:53;97986.50;;;9.51;50.13
67397;BME280;57728;50.448;18.824;2023-05-10T02:17:59;97996.22;;;9.58;50.09
67397;BME280;57728;50.448;18.824;2023-05-10T02:20:05;97986.03;;;9.54;50.17
67397;BME280;57728;50.448;18.824;2023-05-10T02:22:09;97954.69;;;9.33;50.10
67397;BME280;57728;50.448;18.824;2023-05-10T02:24:15;97994.19;;;9.54;50.19
67397;BME280;57728;50.448;18.824;2023-05-10T02:26:22;97942.84;;;9.27;50.28
67397;BME280;57728;50.448;18.824;2023-05-10T02:28:27;97979.16;;;9.51;50.29
67397;BME280;57728;50.448;18.824;2023-05-10T02:30:32;97960.28;;;9.38;50.40
67397;BME280;57728;50.448;18.824;2023-05-10T02:32:37;97960.19;;;9.26;50.42
67397;BME280;57728;50.448;18.824;2023-05-10T02:34:41;97925.84;;;9.13;50.48
67397;BME280;57728;50.448;18.824;2023-05-10T02:36:44;97843.84;;;8.60;50.38
67397;BME280;57728;50.448;18.824;2023-05-10T02:38:46;97960.34;;;9.31;50.48
67397;BME280;57728;50.448;18.824;2023-05-10T02:40:52;97987.19;;;9.46;50.40
67397;BME280;57728;50.448;18.824;2023-05-10T02:42:59;97929.22;;;9.08;50.56
67397;BME280;57728;50.448;18.824;2023-05-10T02:45:10;97906.34;;;8.98;50.59
67397;BME280;57728;50.448;18.824;2023-05-10T02:47:13;97918.44;;;9.02;50.59
67397;BME280;57728;50.448;18.824;2023-05-10T02:49:16;97978.84;;;9.41;50.67
67397;BME280;57728;50.448;18.824;2023-05-10T02:51:20;97985.97;;;9.42;50.60
67397;BME280;57728;50.448;18.824;2023-05-10T02:53:35;97949.41;;;9.19;50.68
67397;BME280;57728;50.448;18.824;2023-05-10T02:55:41;97990.78;;;9.40;50.68
67397;BME280;57728;50.448;18.824;2023-05-10T02:57:54;97978.03;;;9.40;50.61
67397;BME280;57728;50.448;18.824;2023-05-10T03:00:00;97908.53;;;8.89;50.67
67397;BME280;57728;50.448;18.824;2023-05-10T03:02:06;97984.28;;;9.41;50.75
67397;BME280;57728;50.448;18.824;2023-05-10T03:04:08;97989.72;;;9.41;50.72
67397;BME280;57728;50.448;18.824;2023-05-10T03:06:09;97984.28;;;9.41;50.73
67397;BME280;57728;50.448;18.824;2023-05-10T03:08:11;97985.97;;;9.42;50.76
67397;BME280;57728;50.448;18.824;2023-05-10T03:10:13;97924.47;;;9.04;50.60
67397;BME280;57728;50.448;18.824;2023-05-10T03:17:20;97985.56;;;9.38;50.76
67397;BME280;57728;50.448;18.824;2023-05-10T03:19:35;97963.13;;;9.24;50.84
67397;BME280;57728;50.448;18.824;2023-05-10T03:21:49;97964.44;;;9.22;50.93
67397;BME280;57728;50.448;18.824;2023-05-10T03:23:59;97982.47;;;9.35;50.91
67397;BME280;57728;50.448;18.824;2023-05-10T03:26:13;97918.28;;;8.97;50.94
67397;BME280;57728;50.448;18.824;2023-05-10T03:28:21;97954.84;;;9.19;50.99
67397;BME280;57728;50.448;18.824;2023-05-10T03:30:24;97978.09;;;9.34;51.11
67397;BME280;57728;50.448;18.824;2023-05-10T03:32:28;97908.53;;;8.89;51.16
67397;BME280;57728;50.448;18.824;2023-05-10T03:34:31;97939.41;;;9.13;51.09
67397;BME280;57728;50.448;18.824;2023-05-10T03:36:32;97924.47;;;9.04;51.30
67397;BME280;57728;50.448;18.824;2023-05-10T03:38:35;97973.13;;;9.31;51.33
67397;BME280;57728;50.448;18.824;2023-05-10T03:40:43;97951.94;;;9.14;51.32
67397;BME280;57728;50.448;18.824;2023-05-10T03:42:44;97945.69;;;9.14;51.40
67397;BME280;57728;50.448;18.824;2023-05-10T03:44:46;97909.97;;;8.91;51.44
67397;BME280;57728;50.448;18.824;2023-05-10T03:46:49;97977.47;;;9.32;51.36
67397;BME280;57728;50.448;18.824;2023-05-10T03:48:53;97964.56;;;9.27;51.39
67397;BME280;57728;50.448;18.824;2023-05-10T03:50:55;97905.75;;;8.95;51.40
67397;BME280;57728;50.448;18.824;2023-05-10T03:52:59;97959.75;;;9.29;51.49
67397;BME280;57728;50.448;18.824;2023-05-10T03:55:03;97916.56;;;9.02;51.37
67397;BME280;57728;50.448;18.824;2023-05-10T03:57:05;97932.94;;;9.14;51.34
67397;BME280;57728;50.448;18.824;2023-05-10T03:59:07;97903.41;;;8.99;51.36
67397;BME280;57728;50.448;18.824;2023-05-10T04:01:09;97969.19;;;9.45;51.39
67397;BME280;57728;50.448;18.824;2023-05-10T04:03:12;97947.97;;;9.35;51.40
67397;BME280;57728;50.448;18.824;2023-05-10T04:05:14;97920.34;;;9.20;51.42
67397;BME280;57728;50.448;18.824;2023-05-10T04:07:16;97968.69;;;9.55;51.34
67397;BME280;57728;50.448;18.824;2023-05-10T04:09:18;97788.53;;;8.36;51.34
67397;BME280;57728;50.448;18.824;2023-05-10T04:11:19;97933.72;;;9.40;51.26
67397;BME280;57728;50.448;18.824;2023-05-10T04:13:22;97969.22;;;9.63;51.32
67397;BME280;57728;50.448;18.824;2023-05-10T04:15:24;97964.22;;;9.60;51.37
67397;BME280;57728;50.448;18.824;2023-05-10T04:17:25;97974.34;;;9.72;51.16
67397;BME280;57728;50.448;18.824;2023-05-10T04:19:32;97898.78;;;9.25;51.18
67397;BME280;57728;50.448;18.824;2023-05-10T04:21:34;97905.78;;;9.33;51.02
67397;BME280;57728;50.448;18.824;2023-05-10T04:23:37;97974.06;;;9.80;51.09
67397;BME280;57728;50.448;18.824;2023-05-10T04:25:38;97926.88;;;9.56;51.11
67397;BME280;57728;50.448;18.824;2023-05-10T04:27:40;97966.31;;;9.77;50.96
67397;BME280;57728;50.448;18.824;2023-05-10T04:29:42;97981.69;;;9.90;51.03
67397;BME280;57728;50.448;18.824;2023-05-10T04:31:43;97950.00;;;9.77;51.11
67397;BME280;57728;50.448;18.824;2023-05-10T04:33:45;97943.16;;;9.74;51.01
67397;BME280;57728;50.448;18.824;2023-05-10T04:35:46;97932.53;;;9.73;50.81
67397;BME280;57728;50.448;18.824;2023-05-10T04:37:47;97972.75;;;10.01;50.90
67397;BME280;57728;50.448;18.824;2023-05-10T04:39:49;97958.59;;;9.92;50.80
67397;BME280;57728;50.448;18.824;2023-05-10T04:41:51;97977.50;;;10.06;50.67
67397;BME280;57728;50.448;18.824;2023-05-10T04:43:52;97929.47;;;9.81;50.59
67397;BME280;57728;50.448;18.824;2023-05-10T04:45:56;97929.84;;;9.85;50.64
67397;BME280;57728;50.448;18.824;2023-05-10T04:47:58;97930.09;;;9.83;50.63
67397;BME280;57728;50.448;18.824;2023-05-10T04:49:59;97943.97;;;9.93;50.54
67397;BME280;57728;50.448;18.824;2023-05-10T04:52:01;97981.84;;;10.25;50.50
67397;BME280;57728;50.448;18.824;2023-05-10T04:54:02;97992.63;;;10.32;50.24
67397;BME280;57728;50.448;18.824;2023-05-10T04:56:03;97958.88;;;10.21;50.37
67397;BME280;57728;50.448;18.824;2023-05-10T04:58:06;97957.72;;;10.29;50.38
67397;BME280;57728;50.448;18.824;2023-05-10T05:00:08;97926.56;;;10.13;50.14
67397;BME280;57728;50.448;18.824;2023-05-10T05:02:10;97952.13;;;10.42;49.95
67397;BME280;57728;50.448;18.824;2023-05-10T05:04:12;97973.59;;;10.62;49.95
67397;BME280;57728;50.448;18.824;2023-05-10T05:06:13;97941.59;;;10.46;49.87
67397;BME280;57728;50.448;18.824;2023-05-10T05:08:14;97938.28;;;10.44;49.61
67397;BME280;57728;50.448;18.824;2023-05-10T05:10:16;97974.47;;;10.75;49.84
67397;BME280;57728;50.448;18.824;2023-05-10T05:12:17;97813.03;;;9.78;49.74
67397;BME280;57728;50.448;18.824;2023-05-10T05:14:19;97916.41;;;10.51;49.74
67397;BME280;57728;50.448;18.824;2023-05-10T05:16:22;97970.69;;;10.88;49.44
67397;BME280;57728;50.448;18.824;2023-05-10T05:18:24;97972.13;;;10.90;49.19
67397;BME280;57728;50.448;18.824;2023-05-10T05:20:25;97936.44;;;10.68;49.15
67397;BME280;57728;50.448;18.824;2023-05-10T05:22:27;97921.41;;;10.65;49.18
67397;BME280;57728;50.448;18.824;2023-05-10T05:24:29;97971.31;;;11.01;49.07
67397;BME280;57728;50.448;18.824;2023-05-10T05:26:30;97920.13;;;10.80;49.00
67397;BME280;57728;50.448;18.824;2023-05-10T05:28:32;97839.59;;;10.37;48.89
67397;BME280;57728;50.448;18.824;2023-05-10T05:30:35;97936.97;;;11.00;48.76
67397;BME280;57728;50.448;18.824;2023-05-10T05:32:36;97943.13;;;11.08;48.74
67397;BME280;57728;50.448;18.824;2023-05-10T05:34:38;97969.09;;;11.34;48.90
67397;BME280;57728;50.448;18.824;2023-05-10T05:36:39;97903.22;;;11.01;48.59
67397;BME280;57728;50.448;18.824;2023-05-10T05:38:41;97904.41;;;11.06;48.43
67397;BME280;57728;50.448;18.824;2023-05-10T05:40:43;97969.03;;;11.58;48.70
67397;BME280;57728;50.448;18.824;2023-05-10T05:42:44;97944.41;;;11.52;48.48
67397;BME280;57728;50.448;18.824;2023-05-10T05:44:45;97952.69;;;11.69;48.63
67397;BME280;57728;50.448;18.824;2023-05-10T05:46:47;97949.00;;;11.76;48.25
67397;BME280;57728;50.448;18.824;2023-05-10T05:48:48;97963.34;;;11.95;48.13
67397;BME280;57728;50.448;18.824;2023-05-10T05:50:49;97946.97;;;11.95;47.75
67397;BME280;57728;50.448;18.824;2023-05-10T05:52:55;97783.69;;;11.05;47.87
67397;BME280;57728;50.448;18.824;2023-05-10T05:54:57;97841.53;;;11.48;47.53
67397;BME280;57728;50.448;18.824;2023-05-10T05:57:00;97943.69;;;12.21;47.55
67397;BME280;57728;50.448;18.824;2023-05-10T05:59:02;97959.94;;;12.45;46.98
67397;BME280;57728;50.448;18.824;2023-05-10T06:01:04;97953.41;;;12.46;47.19
67397;BME280;57728;50.448;18.824;2023-05-10T06:03:05;97945.06;;;12.53;46.54
67397;BME280;57728;50.448;18.824;2023-05-10T06:05:08;97967.25;;;12.73;46.50
67397;BME280;57728;50.448;18.824;2023-05-10T06:07:09;97916.91;;;12.52;46.26
67397;BME280;57728;50.448;18.824;2023-05-10T06:09:12;97967.53;;;12.89;45.99
67397;BME280;57728;50.448;18.824;2023-05-10T06:11:14;97960.75;;;12.92;46.14
67397;BME280;57728;50.448;18.824;2023-05-10T06:13:15;97923.16;;;12.82;46.01
67397;BME280;57728;50.448;18.824;2023-05-10T06:15:17;97959.81;;;13.20;45.80
67397;BME280;57728;50.448;18.824;2023-05-10T06:17:19;97947.97;;;13.14;45.42
67397;BME280;57728;50.448;18.824;2023-05-10T06:19:20;97949.47;;;13.22;45.06
67397;BME280;57728;50.448;18.824;2023-05-10T06:21:21;97938.59;;;13.27;45.33
67397;BME280;57728;50.448;18.824;2023-05-10T06:23:23;97890.75;;;13.07;45.21
67397;BME280;57728;50.448;18.824;2023-05-10T06:25:26;97940.03;;;13.47;44.72
67397;BME280;57728;50.448;18.824;2023-05-10T06:27:27;97971.03;;;13.74;44.53
67397;BME280;57728;50.448;18.824;2023-05-10T06:29:29;97880.88;;;13.23;43.97
67397;BME280;57728;50.448;18.824;2023-05-10T06:31:30;97973.34;;;13.83;43.72
67397;BME280;57728;50.448;18.824;2023-05-10T06:33:31;97966.50;;;13.85;43.79
67397;BME280;57728;50.448;18.824;2023-05-10T06:35:34;97975.13;;;13.94;43.34
67397;BME280;57728;50.448;18.824;2023-05-10T06:37:35;97934.63;;;13.74;43.51
67397;BME280;57728;50.448;18.824;2023-05-10T06:39:36;97854.75;;;13.33;43.69
67397;BME280;57728;50.448;18.824;2023-05-10T06:41:38;97904.78;;;13.72;43.35
67397;BME280;57728;50.448;18.824;2023-05-10T06:43:39;97924.22;;;13.93;42.73
67397;BME280;57728;50.448;18.824;2023-05-10T06:45:42;97978.88;;;14.32;42.69
67397;BME280;57728;50.448;18.824;2023-05-10T06:47:44;97952.41;;;14.16;41.64
67397;BME280;57728;50.448;18.824;2023-05-10T06:49:45;97931.50;;;14.09;41.37
67397;BME280;57728;50.448;18.824;2023-05-10T06:51:46;97978.97;;;14.42;41.27
67397;BME280;57728;50.448;18.824;2023-05-10T06:53:48;97973.31;;;14.49;41.93
67397;BME280;57728;50.448;18.824;2023-05-10T06:55:50;97966.97;;;14.49;41.63
67397;BME280;57728;50.448;18.824;2023-05-10T06:57:51;97936.31;;;14.47;40.99
67397;BME280;57728;50.448;18.824;2023-05-10T06:59:53;97949.31;;;14.61;41.35
67397;BME280;57728;50.448;18.824;2023-05-10T07:01:59;97913.88;;;14.50;41.85
67397;BME280;57728;50.448;18.824;2023-05-10T07:04:00;97956.50;;;14.95;41.61
67397;BME280;57728;50.448;18.824;2023-05-10T07:06:03;97935.13;;;14.97;41.58
67397;BME280;57728;50.448;18.824;2023-05-10T07:08:05;97845.44;;;14.55;40.96
67397;BME280;57728;50.448;18.824;2023-05-10T07:10:06;97924.63;;;15.21;40.52
67397;BME280;57728;50.448;18.824;2023-05-10T07:12:09;97952.25;;;15.52;40.42
67397;BME280;57728;50.448;18.824;2023-05-10T07:14:10;97824.22;;;14.72;39.48
67397;BME280;57728;50.448;18.824;2023-05-10T07:16:12;97920.06;;;15.37;39.46
67397;BME280;57728;50.448;18.824;2023-05-10T07:18:14;97963.03;;;15.64;39.45
67397;BME280;57728;50.448;18.824;2023-05-10T07:20:16;97958.13;;;15.71;38.81
67397;BME280;57728;50.448;18.824;2023-05-10T07:22:17;97947.69;;;15.73;37.86
67397;BME280;57728;50.448;18.824;2023-05-10T07:24:19;97927.63;;;15.68;38.09
67397;BME280;57728;50.448;18.824;2023-05-10T07:26:20;97895.19;;;15.54;37.71
67397;BME280;57728;50.448;18.824;2023-05-10T07:28:22;97964.88;;;16.01;37.55
67397;BME280;57728;50.448;18.824;2023-05-10T07:30:24;97965.44;;;16.03;37.47
67397;BME280;57728;50.448;18.824;2023-05-10T07:32:25;97959.94;;;16.03;37.07
67397;BME280;57728;50.448;18.824;2023-05-10T07:34:27;97863.94;;;15.55;37.41
67397;BME280;57728;50.448;18.824;2023-05-10T07:36:30;97964.38;;;16.14;37.52
67397;BME280;57728;50.448;18.824;2023-05-10T07:38:31;97921.50;;;16.03;37.30
67397;BME280;57728;50.448;18.824;2023-05-10T07:40:32;97931.97;;;16.11;37.08
67397;BME280;57728;50.448;18.824;2023-05-10T07:42:35;97912.19;;;16.09;36.65
67397;BME280;57728;50.448;18.824;2023-05-10T07:44:36;97950.19;;;16.38;36.43
67397;BME280;57728;50.448;18.824;2023-05-10T07:46:37;97920.47;;;16.25;36.50
67397;BME280;57728;50.448;18.824;2023-05-10T07:48:39;97953.53;;;16.56;35.35
67397;BME280;57728;50.448;18.824;2023-05-10T07:50:41;97922.72;;;16.43;35.98
67397;BME280;57728;50.448;18.824;2023-05-10T07:52:42;97931.50;;;16.45;35.13
67397;BME280;57728;50.448;18.824;2023-05-10T07:54:44;97836.91;;;15.90;35.57
67397;BME280;57728;50.448;18.824;2023-05-10T07:56:45;97945.31;;;16.71;35.61
67397;BME280;57728;50.448;18.824;2023-05-10T07:58:47;97951.63;;;16.82;36.51
67397;BME280;57728;50.448;18.824;2023-05-10T08:00:50;97930.44;;;16.72;35.02
67397;BME280;57728;50.448;18.824;2023-05-10T08:02:51;97921.94;;;16.79;35.82
67397;BME280;57728;50.448;18.824;2023-05-10T08:04:52;97925.25;;;16.96;36.12
67397;BME280;57728;50.448;18.824;2023-05-10T08:06:54;97870.81;;;16.73;35.13
67397;BME280;57728;50.448;18.824;2023-05-10T08:08:58;97926.63;;;17.14;35.16
67397;BME280;57728;50.448;18.824;2023-05-10T08:11:00;97947.78;;;17.34;35.23
67397;BME280;57728;50.448;18.824;2023-05-10T08:13:02;97916.72;;;17.29;35.23
67397;BME280;57728;50.448;18.824;2023-05-10T08:15:03;97940.03;;;17.57;34.54
67397;BME280;57728;50.448;18.824;2023-05-10T08:17:05;97947.22;;;17.58;34.29
67397;BME280;57728;50.448;18.824;2023-05-10T08:19:07;97892.47;;;17.36;34.80
67397;BME280;57728;50.448;18.824;2023-05-10T08:21:08;97937.53;;;17.76;35.42
67397;BME280;57728;50.448;18.824;2023-05-10T08:23:12;97810.31;;;17.09;34.92
67397;BME280;57728;50.448;18.824;2023-05-10T08:25:14;97937.50;;;17.92;34.32
67397;BME280;57728;50.448;18.824;2023-05-10T08:27:16;97897.66;;;17.58;33.70
67397;BME280;57728;50.448;18.824;2023-05-10T08:29:17;97944.66;;;17.87;33.68
67397;BME280;57728;50.448;18.824;2023-05-10T08:31:19;97919.91;;;17.77;33.79
67397;BME280;57728;50.448;18.824;2023-05-10T08:33:20;97941.06;;;17.92;33.87
67397;BME280;57728;50.448;18.824;2023-05-10T08:35:21;97826.25;;;17.22;33.58
67397;BME280;57728;50.448;18.824;2023-05-10T08:37:23;97912.72;;;17.86;33.92
67397;BME280;57728;50.448;18.824;2023-05-10T08:39:24;97904.47;;;17.92;32.83
67397;BME280;57728;50.448;18.824;2023-05-10T08:41:26;97934.41;;;18.09;33.65
67397;BME280;57728;50.448;18.824;2023-05-10T08:43:30;97847.53;;;17.61;33.02
67397;BME280;57728;50.448;18.824;2023-05-10T08:45:37;97888.22;;;17.85;32.70
67397;BME280;57728;50.448;18.824;2023-05-10T08:47:40;97911.53;;;18.08;33.50
67397;BME280;57728;50.448;18.824;2023-05-10T08:49:47;97934.00;;;18.31;33.40
67397;BME280;57728;50.448;18.824;2023-05-10T08:51:54;97819.16;;;17.71;33.50
67397;BME280;57728;50.448;18.824;2023-05-10T08:53:59;97917.97;;;18.43;33.27
67397;BME280;57728;50.448;18.824;2023-05-10T08:56:03;97856.97;;;18.15;33.28
67397;BME280;57728;50.448;18.824;2023-05-10T08:58:05;97895.34;;;18.46;33.19
67397;BME280;57728;50.448;18.824;2023-05-10T09:00:07;97945.03;;;18.81;31.84
67397;BME280;57728;50.448;18.824;2023-05-10T09:02:12;97821.25;;;18.00;31.52
67397;BME280;57728;50.448;18.824;2023-05-10T09:04:14;97881.56;;;18.46;32.09
67397;BME280;57728;50.448;18.824;2023-05-10T09:06:16;97801.09;;;18.04;32.58
67397;BME280;57728;50.448;18.824;2023-05-10T09:08:19;97897.78;;;18.93;33.17
67397;BME280;57728;50.448;18.824;2023-05-10T09:10:22;97937.59;;;19.45;32.79
67397;BME280;57728;50.448;18.824;2023-05-10T09:12:27;97904.38;;;19.55;31.71
67397;BME280;57728;50.448;18.824;2023-05-10T09:14:30;97912.81;;;19.93;31.93
67397;BME280;57728;50.448;18.824;2023-05-10T09:16:35;97931.47;;;20.45;31.46
67397;BME280;57728;50.448;18.824;2023-05-10T09:18:36;97907.50;;;20.78;31.18
67397;BME280;57728;50.448;18.824;2023-05-10T09:20:39;97934.25;;;21.49;30.27
67397;BME280;57728;50.448;18.824;2023-05-10T09:22:40;97906.28;;;21.92;30.56
67397;BME280;57728;50.448;18.824;2023-05-10T09:24:42;97917.41;;;22.71;29.85
67397;BME280;57728;50.448;18.824;2023-05-10T09:26:47;97919.84;;;23.40;28.77
67397;BME280;57728;50.448;18.824;2023-05-10T09:28:54;97852.44;;;23.57;26.89
67397;BME280;57728;50.448;18.824;2023-05-10T09:30:57;97911.38;;;24.26;26.64
67397;BME280;57728;50.448;18.824;2023-05-10T09:33:00;97827.94;;;24.17;26.19
67397;BME280;57728;50.448;18.824;2023-05-10T09:35:15;97846.25;;;24.53;25.55
67397;BME280;57728;50.448;18.824;2023-05-10T09:37:18;97896.50;;;25.35;25.59
67397;BME280;57728;50.448;18.824;2023-05-10T09:39:38;97933.53;;;25.92;24.80
67397;BME280;57728;50.448;18.824;2023-05-10T09:41:42;97876.00;;;25.87;25.04
67397;BME280;57728;50.448;18.824;2023-05-10T09:43:43;97949.91;;;26.62;24.71
67397;BME280;57728;50.448;18.824;2023-05-10T09:45:48;97880.94;;;26.63;24.46
67397;BME280;57728;50.448;18.824;2023-05-10T09:47:52;97906.28;;;27.00;23.66
67397;BME280;57728;50.448;18.824;2023-05-10T09:49:54;97888.97;;;27.06;23.47
67397;BME280;57728;50.448;18.824;2023-05-10T09:52:06;97890.16;;;27.18;23.12
67397;BME280;57728;50.448;18.824;2023-05-10T09:54:10;97927.56;;;27.59;22.25
67397;BME280;57728;50.448;18.824;2023-05-10T09:56:11;97903.91;;;27.23;21.55
67397;BME280;57728;50.448;18.824;2023-05-10T09:58:14;97873.38;;;27.39;23.17
67397;BME280;57728;50.448;18.824;2023-05-10T10:00:19;97933.94;;;28.30;22.84
67397;BME280;57728;50.448;18.824;2023-05-10T10:02:28;97919.81;;;28.63;21.17
67397;BME280;57728;50.448;18.824;2023-05-10T10:04:30;97916.34;;;28.82;21.11
67397;BME280;57728;50.448;18.824;2023-05-10T10:06:39;97906.28;;;28.94;21.60
67397;BME280;57728;50.448;18.824;2023-05-10T10:08:40;97898.22;;;29.21;21.34
67397;BME280;57728;50.448;18.824;2023-05-10T10:10:42;97901.38;;;29.47;20.78
67397;BME280;57728;50.448;18.824;2023-05-10T10:12:47;97843.88;;;29.09;21.02
67397;BME280;57728;50.448;18.824;2023-05-10T10:14:49;97918.50;;;29.74;21.14
67397;BME280;57728;50.448;18.824;2023-05-10T10:16:52;97873.88;;;29.69;20.57
67397;BME280;57728;50.448;18.824;2023-05-10T10:18:54;97827.75;;;29.66;20.61
67397;BME280;57728;50.448;18.824;2023-05-10T10:20:56;97903.50;;;30.14;18.76
67397;BME280;57728;50.448;18.824;2023-05-10T10:22:59;97881.19;;;29.42;19.17
67397;BME280;57728;50.448;18.824;2023-05-10T10:25:01;97885.16;;;29.25;20.13
67397;BME280;57728;50.448;18.824;2023-05-10T10:32:28;97908.03;;;30.19;20.33
67397;BME280;57728;50.448;18.824;2023-05-10T10:34:39;97859.66;;;30.26;19.90
67397;BME280;57728;50.448;18.824;2023-05-10T10:36:46;97886.63;;;30.46;19.74
67397;BME280;57728;50.448;18.824;2023-05-10T10:41:02;97895.44;;;29.65;20.12
67397;BME280;57728;50.448;18.824;2023-05-10T10:43:28;97882.41;;;29.57;19.45
67397;BME280;57728;50.448;18.824;2023-05-10T10:45:30;97866.13;;;29.18;19.40
67397;BME280;57728;50.448;18.824;2023-05-10T10:47:31;97893.53;;;29.53;20.35
67397;BME280;57728;50.448;18.824;2023-05-10T10:54:35;97894.72;;;30.16;19.90
67397;BME280;57728;50.448;18.824;2023-05-10T10:56:36;97762.16;;;29.39;19.36
67397;BME280;57728;50.448;18.824;2023-05-10T10:58:38;97865.00;;;30.15;19.54
67397;BME280;57728;50.448;18.824;2023-05-10T11:00:41;97882.03;;;30.22;19.62
67397;BME280;57728;50.448;18.824;2023-05-10T11:02:43;97879.25;;;30.42;19.33
67397;BME280;57728;50.448;18.824;2023-05-10T11:04:48;97852.63;;;30.16;18.53
67397;BME280;57728;50.448;18.824;2023-05-10T11:06:50;97885.13;;;30.52;19.11
67397;BME280;57728;50.448;18.824;2023-05-10T11:09:18;97884.78;;;30.93;19.62
67397;BME280;57728;50.448;18.824;2023-05-10T11:11:22;97867.44;;;31.07;18.69
67397;BME280;57728;50.448;18.824;2023-05-10T11:15:40;97880.38;;;30.37;18.53
67397;BME280;57728;50.448;18.824;2023-05-10T11:17:49;97893.47;;;30.13;18.45
67397;BME280;57728;50.448;18.824;2023-05-10T11:20:22;97826.09;;;28.89;18.74